Terminal Aerodrome Forecast
Issued by NWS Cleveland, OH

Home | Current Version | Previous Version | Graphics & Text | Print | Product List | Glossary Off
Versions: 1 2 3 4 5 6 7 8 9 10 11 12 13 14 15 16 17 18 19

000
FTUS41 KCLE 251100
TAFERI
TAF
KERI 251140Z 2512/2612 25018G28KT P6SM OVC020
      TEMPO 2512/2514 6SM -SHRA
     FM252300 23015KT P6SM OVC035
     FM260800 21010KT P6SM BKN250=

USA.gov is the U.S. government's official web portal to all federal, state and local government web resources and services.